Time;durP1;ratioP1;P1;durP2;ratioP2;P2;SDS_P1;SDS_P2;PMS_P1;PMS_P2;Temp;Humidity;BMP_temperature;BMP_pressure;BME280_temperature;BME280_humidity;BME280_pressure;Samples;Min_cycle;Max_cycle;Signal;HPM_P1;HPM_P2
2023/05/12 00:00:16;;;;;;;163.07;68.47;;;;;;;17.94;48.71;101534.06;5049615;28;20033;-76
2023/05/12 00:02:42;;;;;;;141.77;64.45;;;;;;;17.95;48.80;101540.22;5048300;28;20108;-76
2023/05/12 00:05:07;;;;;;;139.35;61.53;;;;;;;17.94;48.63;101541.13;5046488;28;20524;-76
2023/05/12 00:07:33;;;;;;;143.18;65.88;;;;;;;17.93;48.31;101542.94;5050022;28;20025;-76
2023/05/12 00:09:58;;;;;;;142.07;64.32;;;;;;;17.93;48.19;101542.94;5050890;28;20025;-76
2023/05/12 00:12:24;;;;;;;143.52;65.50;;;;;;;17.93;48.42;101540.28;5050281;28;20049;-76
2023/05/12 00:14:49;;;;;;;143.05;63.50;;;;;;;17.93;48.13;101537.66;5042564;28;20064;-76
2023/05/12 00:17:15;;;;;;;143.85;64.63;;;;;;;17.92;47.77;101533.25;5050251;28;20482;-76
2023/05/12 00:19:42;;;;;;;137.25;64.10;;;;;;;17.92;47.84;101541.19;5050647;28;20135;-76
2023/05/12 00:22:08;;;;;;;143.57;64.63;;;;;;;17.92;48.13;101535.91;5051570;28;20056;-77
2023/05/12 00:24:34;;;;;;;144.63;65.68;;;;;;;17.91;47.81;101536.78;5048789;28;20064;-77
2023/05/12 00:26:59;;;;;;;143.32;63.20;;;;;;;17.89;47.59;101533.34;5050776;28;20025;-77
2023/05/12 00:29:25;;;;;;;144.88;64.95;;;;;;;17.90;48.04;101533.28;5050501;28;20409;-77
2023/05/12 00:31:50;;;;;;;148.90;64.60;;;;;;;17.91;48.21;101547.34;5049364;28;20067;-77
2023/05/12 00:34:15;;;;;;;156.77;66.05;;;;;;;17.89;47.96;101547.41;5045670;28;20052;-77
2023/05/12 00:36:41;;;;;;;144.93;63.72;;;;;;;17.89;47.72;101544.78;5049977;28;20045;-76
2023/05/12 00:39:06;;;;;;;139.18;62.92;;;;;;;17.89;48.34;101546.56;5018167;28;20489;-76
2023/05/12 00:41:31;;;;;;;145.75;64.18;;;;;;;17.89;48.03;101547.41;5051559;28;20025;-76
2023/05/12 00:43:57;;;;;;;144.65;64.07;;;;;;;17.89;47.83;101546.56;5049346;28;20055;-76
2023/05/12 00:46:22;;;;;;;141.73;65.32;;;;;;;17.89;48.12;101557.13;5032310;28;20028;-76
2023/05/12 00:48:48;;;;;;;145.18;64.50;;;;;;;17.90;48.36;101553.56;5049448;28;20481;-77
2023/05/12 00:51:14;;;;;;;139.68;63.47;;;;;;;17.88;47.43;101550.97;5047735;23;20036;-72
2023/05/12 00:53:40;;;;;;;140.27;63.13;;;;;;;17.87;47.73;101554.53;5032232;28;20117;-72
2023/05/12 00:56:06;;;;;;;144.02;62.60;;;;;;;17.89;48.13;101551.84;5062592;28;20044;-72
2023/05/12 00:58:31;;;;;;;139.52;61.92;;;;;;;17.88;47.97;101552.75;5031791;28;20033;-72
2023/05/12 01:00:57;;;;;;;143.07;62.55;;;;;;;17.88;47.56;101558.03;5019372;28;20021;-72
2023/05/12 01:03:22;;;;;;;144.55;62.47;;;;;;;17.89;48.04;101554.50;5050487;28;20098;-72
2023/05/12 01:05:51;;;;;;;138.68;61.08;;;;;;;17.88;47.37;101558.88;5042337;28;20509;-72
2023/05/12 01:08:18;;;;;;;142.15;63.38;;;;;;;17.88;48.11;101558.03;5034080;28;20488;-72
2023/05/12 01:10:43;;;;;;;151.18;64.72;;;;;;;17.88;47.44;101558.03;5020413;28;20032;-72
2023/05/12 01:13:09;;;;;;;136.38;62.40;;;;;;;17.88;48.03;101565.97;5054194;28;20033;-72
2023/05/12 01:15:35;;;;;;;141.48;63.08;;;;;;;17.87;47.41;101561.59;5032569;28;20016;-72
2023/05/12 01:18:01;;;;;;;141.30;62.67;;;;;;;17.86;47.68;101559.84;5026531;28;20028;-71
2023/05/12 01:20:27;;;;;;;142.05;63.22;;;;;;;17.85;47.31;101560.78;5036381;28;20028;-72
2023/05/12 01:22:54;;;;;;;139.45;62.33;;;;;;;17.86;47.91;101562.50;5022762;28;20391;-72
2023/05/12 01:25:21;;;;;;;140.23;63.55;;;;;;;17.86;47.76;101563.38;5033821;28;20120;-72
2023/05/12 01:27:47;;;;;;;136.82;61.97;;;;;;;17.86;47.53;101573.06;5046785;28;20112;-72
2023/05/12 01:30:16;;;;;;;133.38;61.05;;;;;;;17.87;47.55;101572.16;5049197;28;20167;-72
2023/05/12 01:32:41;;;;;;;141.02;62.15;;;;;;;17.86;47.20;101571.31;5031477;28;20493;-71
2023/05/12 01:35:07;;;;;;;142.57;63.60;;;;;;;17.86;47.43;101567.78;5032217;28;20037;-72
2023/05/12 01:37:32;;;;;;;141.55;62.97;;;;;;;17.86;47.34;101568.66;5040666;28;20507;-72
2023/05/12 01:39:57;;;;;;;141.52;64.00;;;;;;;17.87;47.20;101569.50;5038856;28;20031;-72
2023/05/12 01:42:23;;;;;;;141.13;62.38;;;;;;;17.85;47.82;101561.66;5048918;28;20013;-71
2023/05/12 01:44:48;;;;;;;142.85;62.45;;;;;;;17.88;47.73;101576.53;5040287;28;20029;-71
2023/05/12 01:47:14;;;;;;;140.98;63.33;;;;;;;17.87;47.65;101575.69;5049978;28;20326;-72
2023/05/12 01:49:39;;;;;;;140.20;61.20;;;;;;;17.87;47.39;101580.09;5049565;28;20035;-72
2023/05/12 01:52:05;;;;;;;141.38;61.80;;;;;;;17.87;47.54;101574.81;5047828;28;20025;-72
2023/05/12 01:54:30;;;;;;;139.68;63.53;;;;;;;17.87;47.62;101577.44;5004231;28;20032;-72
2023/05/12 01:56:56;;;;;;;142.70;62.60;;;;;;;17.87;47.27;101580.09;5031172;28;20025;-72
2023/05/12 01:59:21;;;;;;;143.45;62.67;;;;;;;17.87;47.43;101585.38;5055849;28;20056;-72
2023/05/12 02:01:46;;;;;;;141.63;62.47;;;;;;;17.87;47.45;101588.00;5000909;28;20017;-72
2023/05/12 02:04:12;;;;;;;161.05;64.35;;;;;;;17.86;47.44;101583.63;5017820;28;20024;-72
2023/05/12 02:06:37;;;;;;;141.05;61.80;;;;;;;17.87;47.50;101585.38;5050480;28;20025;-73
2023/05/12 02:09:02;;;;;;;141.38;62.28;;;;;;;17.87;47.23;101585.38;5038090;28;20018;-71
2023/05/12 02:11:28;;;;;;;139.88;62.45;;;;;;;17.87;47.57;101585.38;5032405;28;20033;-71
2023/05/12 02:13:53;;;;;;;142.60;62.72;;;;;;;17.87;47.52;101593.31;5024308;28;20151;-72
2023/05/12 02:16:18;;;;;;;138.65;61.78;;;;;;;17.87;47.81;101591.53;5032094;28;20035;-71
2023/05/12 02:18:44;;;;;;;143.32;63.08;;;;;;;17.87;47.52;101590.66;5050586;28;20035;-72
2023/05/12 02:21:09;;;;;;;140.52;62.47;;;;;;;17.87;47.10;101595.94;5049804;28;20017;-71
2023/05/12 02:23:35;;;;;;;137.57;62.75;;;;;;;17.87;46.96;101599.47;5032677;28;20060;-72
2023/05/12 02:26:00;;;;;;;148.30;63.78;;;;;;;17.87;47.37;101595.94;5045141;28;20075;-71
2023/05/12 02:28:25;;;;;;;140.60;63.13;;;;;;;17.87;47.10;101606.50;5028915;28;20025;-73
2023/05/12 02:30:51;;;;;;;146.50;64.30;;;;;;;17.86;47.11;101605.66;5026039;28;20052;-71
2023/05/12 02:33:18;;;;;;;141.85;63.05;;;;;;;17.87;47.14;101606.50;5017807;28;20397;-73
2023/05/12 02:35:44;;;;;;;143.60;65.40;;;;;;;17.87;47.61;101607.41;5023514;28;20451;-72
2023/05/12 02:38:09;;;;;;;140.82;63.00;;;;;;;17.87;47.50;101606.50;5016112;28;20028;-72
2023/05/12 02:40:35;;;;;;;143.65;63.58;;;;;;;17.87;47.34;101606.50;5026376;28;20030;-72
2023/05/12 02:43:00;;;;;;;139.75;64.13;;;;;;;17.87;46.84;101601.22;5029399;28;20044;-72
2023/05/12 02:45:25;;;;;;;139.77;61.28;;;;;;;17.86;47.09;101599.50;5020732;28;20018;-73
2023/05/12 02:47:51;;;;;;;140.65;64.18;;;;;;;17.85;47.61;101600.44;5028986;28;20021;-73
2023/05/12 02:50:16;;;;;;;140.55;63.45;;;;;;;17.87;47.59;101606.50;5048541;28;20032;-72
2023/05/12 02:52:42;;;;;;;139.52;64.70;;;;;;;17.86;47.29;101604.78;5032295;28;20025;-73
2023/05/12 02:55:07;;;;;;;140.68;62.58;;;;;;;17.83;47.15;101594.31;5011929;28;20037;-72
2023/05/12 02:57:32;;;;;;;134.98;61.40;;;;;;;17.86;47.31;101610.06;5048728;28;20502;-73
2023/05/12 03:00:05;;;;;;;143.27;63.20;;;;;;;17.84;47.18;101596.91;5049628;28;20029;-73
2023/05/12 03:02:34;;;;;;;135.45;61.38;;;;;;;17.85;47.56;101597.78;5032966;28;20493;-72
2023/05/12 03:04:59;;;;;;;146.32;62.15;;;;;;;17.85;47.56;101603.06;5028478;28;20521;-72
2023/05/12 03:07:25;;;;;;;144.18;73.40;;;;;;;17.84;47.25;101599.53;5049423;28;20025;-73
2023/05/12 03:09:51;;;;;;;141.25;63.35;;;;;;;17.85;46.97;101603.06;5034694;28;20021;-73
2023/05/12 03:12:16;;;;;;;141.82;64.88;;;;;;;17.85;46.78;101611.84;5050694;28;20032;-73
2023/05/12 03:14:41;;;;;;;143.05;62.95;;;;;;;17.85;46.86;101613.63;5039840;28;20037;-72
2023/05/12 03:17:07;;;;;;;140.63;64.18;;;;;;;17.85;47.45;101608.34;5027567;28;20040;-73
2023/05/12 03:19:33;;;;;;;140.27;63.33;;;;;;;17.84;47.09;101602.19;5052985;28;20032;-73
2023/05/12 03:21:59;;;;;;;145.07;63.00;;;;;;;17.83;47.49;101605.78;5035992;28;20028;-73
2023/05/12 03:24:24;;;;;;;140.13;62.92;;;;;;;17.84;47.07;101614.56;5036220;28;20029;-73
2023/05/12 03:26:49;;;;;;;145.95;63.50;;;;;;;17.84;46.86;101610.13;5041315;28;20112;-73
2023/05/12 03:29:14;;;;;;;143.73;64.70;;;;;;;17.84;47.45;101614.56;5027635;28;20037;-73
2023/05/12 03:31:40;;;;;;;141.13;63.75;;;;;;;17.83;46.77;101615.47;5052244;28;20096;-72
2023/05/12 03:34:05;;;;;;;158.95;64.63;;;;;;;17.84;47.05;101617.19;5050430;28;20490;-73
2023/05/12 03:36:31;;;;;;;142.13;63.33;;;;;;;17.83;46.99;101618.09;5035556;28;20386;-72
2023/05/12 03:38:56;;;;;;;141.13;62.35;;;;;;;17.83;47.20;101616.34;5040884;28;20131;-72
2023/05/12 03:41:21;;;;;;;143.10;63.05;;;;;;;17.83;46.95;101615.47;5052445;28;20125;-72
2023/05/12 03:43:47;;;;;;;140.38;62.33;;;;;;;17.83;46.86;101615.47;5053246;28;20102;-72
2023/05/12 03:46:12;;;;;;;150.55;64.25;;;;;;;17.84;47.41;101625.13;5033620;28;20319;-72
2023/05/12 03:48:37;;;;;;;139.93;63.20;;;;;;;17.84;47.12;101623.34;5051688;28;20095;-72
2023/05/12 03:51:03;;;;;;;140.02;61.95;;;;;;;17.83;47.26;101620.75;5051440;28;20513;-72
2023/05/12 03:53:28;;;;;;;142.32;62.85;;;;;;;17.84;46.77;101623.34;5032992;28;20040;-72
2023/05/12 03:55:53;;;;;;;142.02;64.13;;;;;;;17.85;46.55;101626.84;5033171;28;20104;-73
2023/05/12 03:58:19;;;;;;;147.25;64.15;;;;;;;17.85;46.66;101630.34;5024375;28;20504;-73
2023/05/12 04:00:45;;;;;;;144.40;61.50;;;;;;;17.84;46.68;101625.97;5023644;28;20405;-73
2023/05/12 04:03:10;;;;;;;137.98;61.13;;;;;;;17.85;47.28;101625.06;5022555;28;20018;-72
2023/05/12 04:05:38;;;;;;;140.80;64.40;;;;;;;17.86;46.92;101633.84;5049531;28;20210;-74
2023/05/12 04:08:03;;;;;;;138.18;61.42;;;;;;;17.86;47.20;101631.19;5050061;28;20104;-73
2023/05/12 04:10:29;;;;;;;139.98;61.97;;;;;;;17.86;46.90;101637.38;5047015;28;20112;-73
2023/05/12 04:12:54;;;;;;;140.27;61.65;;;;;;;17.86;46.70;101636.50;5050856;28;20062;-73
2023/05/12 04:15:20;;;;;;;152.05;63.67;;;;;;;17.87;47.35;101633.81;5062284;28;20114;-73
2023/05/12 04:17:45;;;;;;;142.98;62.30;;;;;;;17.87;47.41;101640.88;5046859;28;20082;-72
2023/05/12 04:20:10;;;;;;;142.35;62.05;;;;;;;17.86;46.75;101639.13;5052245;28;20504;-73
2023/05/12 04:22:36;;;;;;;139.52;63.05;;;;;;;17.87;47.05;101640.88;5049731;28;20013;-73
2023/05/12 04:25:01;;;;;;;142.95;61.58;;;;;;;17.86;46.76;101641.78;5033877;28;20086;-73
2023/05/12 04:27:26;;;;;;;139.48;62.83;;;;;;;17.88;46.76;101650.53;5047027;28;20032;-73
2023/05/12 04:29:52;;;;;;;141.13;61.92;;;;;;;17.89;46.60;101649.63;5047346;28;20031;-73
2023/05/12 04:32:17;;;;;;;139.55;62.30;;;;;;;17.90;46.59;101648.69;5039223;28;20017;-73
2023/05/12 04:34:43;;;;;;;141.88;66.53;;;;;;;17.90;46.71;101653.97;5044149;28;20033;-73
2023/05/12 04:37:08;;;;;;;147.85;62.35;;;;;;;17.90;46.87;101651.34;5048147;28;20036;-72
2023/05/12 04:39:33;;;;;;;139.00;63.20;;;;;;;17.90;46.61;101649.56;5030637;28;20029;-72
2023/05/12 04:42:02;;;;;;;141.38;66.60;;;;;;;17.92;46.99;101657.47;5050323;28;20017;-72
2023/05/12 04:44:27;;;;;;;140.65;64.55;;;;;;;17.92;46.45;101660.13;5035652;28;20122;-73
2023/05/12 04:46:55;;;;;;;139.45;61.13;;;;;;;17.92;47.06;101662.78;5024273;28;20053;-73
2023/05/12 04:49:20;;;;;;;138.55;62.40;;;;;;;17.94;46.60;101665.38;5033619;28;20037;-73
2023/05/12 04:51:46;;;;;;;139.07;62.30;;;;;;;17.94;46.67;101671.50;5046870;28;20022;-73
2023/05/12 04:54:11;;;;;;;160.18;64.55;;;;;;;17.96;46.50;101668.84;5052905;28;20378;-73
2023/05/12 04:56:37;;;;;;;136.15;60.90;;;;;;;17.97;46.23;101671.44;5052043;28;20497;-73
2023/05/12 04:59:02;;;;;;;138.15;61.30;;;;;;;17.98;46.36;101670.50;5042656;28;20116;-73
2023/05/12 05:01:27;;;;;;;140.00;62.22;;;;;;;17.99;46.59;101680.16;5029603;28;20398;-74
2023/05/12 05:03:53;;;;;;;141.30;63.60;;;;;;;18.01;46.23;101688.03;5048052;28;20501;-75
2023/05/12 05:06:18;;;;;;;133.80;60.15;;;;;;;18.01;46.55;101688.91;5012307;28;20050;-74
2023/05/12 05:08:43;;;;;;;138.85;63.22;;;;;;;18.03;46.23;101691.50;5033584;28;20033;-72
2023/05/12 05:11:08;;;;;;;143.52;62.05;;;;;;;18.06;46.79;101691.41;5042554;28;20029;-72
2023/05/12 05:13:34;;;;;;;138.00;60.40;;;;;;;18.06;46.44;101687.00;5029875;28;20021;-72
2023/05/12 05:15:59;;;;;;;136.15;60.22;;;;;;;18.08;46.18;101687.81;5050952;28;20436;-72
2023/05/12 05:18:25;;;;;;;135.52;61.00;;;;;;;18.12;46.27;101692.97;5022882;28;20379;-72
2023/05/12 05:20:51;;;;;;;140.05;62.33;;;;;;;18.14;45.73;101701.75;5048346;28;20032;-72
2023/05/12 05:23:16;;;;;;;140.48;62.92;;;;;;;18.13;45.94;101695.56;5056251;28;20036;-72
2023/05/12 05:25:41;;;;;;;143.23;64.03;;;;;;;18.14;46.45;101694.66;5050614;28;20025;-71
2023/05/12 05:28:07;;;;;;;141.65;65.80;;;;;;;18.15;45.79;101700.84;5047799;28;20029;-73
2023/05/12 05:30:32;;;;;;;157.38;68.78;;;;;;;18.16;45.57;101707.84;5048181;28;20049;-72
2023/05/12 05:32:58;;;;;;;142.20;63.60;;;;;;;18.14;46.08;101707.03;5017427;28;20504;-72
2023/05/12 05:35:23;;;;;;;141.00;67.00;;;;;;;18.14;46.04;101709.69;5047545;28;20029;-74
2023/05/12 05:37:51;;;;;;;138.43;61.17;;;;;;;18.14;45.60;101710.53;5041265;28;20035;-73
2023/05/12 05:40:17;;;;;;;135.68;61.35;;;;;;;18.15;45.99;101714.91;5055391;28;20020;-72
2023/05/12 05:42:42;;;;;;;141.63;62.80;;;;;;;18.16;45.77;101723.69;5034167;28;20063;-73
2023/05/12 05:45:08;;;;;;;142.23;62.65;;;;;;;18.16;45.39;101726.34;5045518;28;20082;-73
2023/05/12 05:47:34;;;;;;;137.38;62.17;;;;;;;18.16;45.74;101723.69;5024023;28;20032;-73
2023/05/12 05:50:00;;;;;;;141.60;61.20;;;;;;;18.17;45.96;101725.44;5044394;28;20025;-73
2023/05/12 05:52:25;;;;;;;138.70;61.15;;;;;;;18.18;45.53;101727.16;5029278;28;20055;-73
2023/05/12 05:54:50;;;;;;;136.38;62.65;;;;;;;18.20;45.64;101726.22;5047930;28;20162;-73
2023/05/12 05:57:16;;;;;;;163.38;65.55;;;;;;;18.22;45.95;101731.44;5047179;28;20105;-72
2023/05/12 05:59:41;;;;;;;150.52;61.95;;;;;;;18.24;45.26;101742.81;5051916;28;20109;-72
2023/05/12 06:02:07;;;;;;;148.95;62.70;;;;;;;18.26;45.62;101738.38;5029319;28;20047;-73
2023/05/12 06:04:32;;;;;;;140.10;61.95;;;;;;;18.29;45.42;101734.75;5028845;28;20106;-73
2023/05/12 06:06:57;;;;;;;138.63;61.90;;;;;;;18.32;45.19;101740.81;5051529;28;20064;-73
2023/05/12 06:09:23;;;;;;;134.98;61.63;;;;;;;18.35;45.76;101740.72;5049501;28;20033;-73
2023/05/12 06:11:48;;;;;;;139.02;62.53;;;;;;;18.35;44.88;101740.72;5045354;28;20033;-73
2023/05/12 06:14:13;;;;;;;157.77;64.03;;;;;;;18.40;45.24;101748.50;5051369;28;20367;-73
2023/05/12 06:16:39;;;;;;;137.70;60.38;;;;;;;18.40;44.89;101754.66;5050317;28;20028;-73
2023/05/12 06:19:04;;;;;;;144.20;62.65;;;;;;;18.41;45.38;101748.44;5050362;28;20089;-73
2023/05/12 06:21:31;;;;;;;140.85;62.50;;;;;;;18.45;45.25;101750.97;5050478;28;20478;-73
2023/05/12 06:23:56;;;;;;;144.55;62.90;;;;;;;18.49;44.92;101752.66;5050241;28;20025;-73
2023/05/12 06:26:21;;;;;;;144.55;64.18;;;;;;;18.54;45.26;101755.97;5050130;28;20500;-74
2023/05/12 06:28:47;;;;;;;142.82;62.47;;;;;;;18.56;44.65;101755.03;5040271;28;20022;-72
2023/05/12 06:31:12;;;;;;;144.52;62.90;;;;;;;18.63;45.01;101755.69;5014048;28;20035;-74
2023/05/12 06:33:38;;;;;;;152.98;65.60;;;;;;;18.67;44.72;101757.31;5031630;28;20041;-73
2023/05/12 06:36:03;;;;;;;138.88;61.85;;;;;;;18.73;44.13;101764.19;5031241;28;20030;-73
2023/05/12 06:38:28;;;;;;;145.48;64.22;;;;;;;18.75;44.82;101754.41;5031714;28;20036;-73
2023/05/12 06:40:54;;;;;;;140.98;62.13;;;;;;;18.79;44.18;101755.16;5030382;28;20394;-73
2023/05/12 06:43:19;;;;;;;141.27;62.22;;;;;;;18.83;44.26;101759.44;5031637;28;20060;-73
2023/05/12 06:45:45;;;;;;;138.82;62.22;;;;;;;18.84;44.36;101763.81;5036813;28;20026;-73
2023/05/12 06:48:10;;;;;;;144.55;63.38;;;;;;;18.83;44.27;101770.00;5035284;28;20093;-73
2023/05/12 06:53:05;;;;;;;141.27;62.10;;;;;;;18.83;44.30;101775.31;5055100;22;20057;-75
2023/05/12 06:55:30;;;;;;;137.43;61.13;;;;;;;18.80;44.02;101767.47;5034487;28;20084;-74
2023/05/12 06:57:55;;;;;;;141.07;61.83;;;;;;;18.81;43.63;101774.50;5033775;28;20025;-74
2023/05/12 07:00:24;;;;;;;135.32;60.47;;;;;;;18.79;43.99;101773.69;5035122;28;20025;-74
2023/05/12 07:02:50;;;;;;;142.27;61.75;;;;;;;18.78;44.25;101778.13;5012334;28;20033;-75
2023/05/12 07:05:17;;;;;;;136.32;62.72;;;;;;;18.80;44.37;101770.13;4994171;28;20031;-75
2023/05/12 07:07:43;;;;;;;137.27;61.13;;;;;;;18.80;43.82;101776.31;4994443;28;20395;-75
2023/05/12 07:10:09;;;;;;;138.38;61.53;;;;;;;18.82;43.65;101787.69;4994367;28;20018;-75
2023/05/12 07:12:34;;;;;;;138.38;61.15;;;;;;;18.87;43.53;101776.94;4994054;28;20022;-75
2023/05/12 07:14:59;;;;;;;137.77;62.42;;;;;;;18.91;43.43;101778.63;5010198;28;20065;-74
2023/05/12 07:17:25;;;;;;;140.48;62.00;;;;;;;18.97;43.88;101775.75;4994442;28;20027;-74
2023/05/12 07:19:51;;;;;;;141.63;61.65;;;;;;;19.02;43.41;101787.06;5010070;28;20169;-74
2023/05/12 07:22:16;;;;;;;140.98;61.88;;;;;;;19.08;43.51;101789.47;4994014;28;20113;-75
2023/05/12 07:24:42;;;;;;;143.00;61.05;;;;;;;19.12;43.46;101784.09;4993693;28;20030;-75
2023/05/12 07:27:07;;;;;;;141.40;61.83;;;;;;;19.16;43.23;101786.56;4995363;28;20121;-74
2023/05/12 07:29:36;;;;;;;141.57;61.92;;;;;;;19.22;43.23;101785.47;4995072;28;20046;-74
2023/05/12 07:32:01;;;;;;;136.63;60.88;;;;;;;19.32;43.28;101786.00;4993802;28;20026;-75
2023/05/12 07:34:27;;;;;;;136.52;61.22;;;;;;;19.45;43.09;101791.75;4993543;28;20026;-74
2023/05/12 07:36:52;;;;;;;139.52;62.63;;;;;;;19.52;42.22;101796.75;5004848;28;20028;-74
2023/05/12 07:39:22;;;;;;;143.18;62.45;;;;;;;19.61;42.35;101789.44;5014677;28;20060;-74
2023/05/12 07:41:51;;;;;;;136.00;61.50;;;;;;;19.72;42.37;101790.72;5029695;28;20018;-74
2023/05/12 07:44:17;;;;;;;158.02;63.75;;;;;;;19.74;42.03;101783.59;4996801;28;20017;-74
2023/05/12 07:46:42;;;;;;;138.45;62.22;;;;;;;19.77;41.83;101793.22;5013257;28;20458;-74
2023/05/12 07:49:07;;;;;;;139.80;61.60;;;;;;;19.89;41.47;101792.78;5013174;28;20376;-74
2023/05/12 07:51:33;;;;;;;137.80;60.85;;;;;;;19.91;41.51;101788.28;5014092;28;20034;-74
2023/05/12 07:53:59;;;;;;;137.63;60.15;;;;;;;19.87;41.70;101801.72;5012897;28;20030;-75
2023/05/12 07:56:24;;;;;;;138.90;62.10;;;;;;;19.82;42.18;101799.22;5012790;28;20434;-75
2023/05/12 07:58:50;;;;;;;137.48;61.38;;;;;;;19.83;41.58;101802.75;5013003;28;20026;-75
2023/05/12 08:01:15;;;;;;;138.05;60.67;;;;;;;19.83;41.92;101802.75;5012874;28;20025;-74
2023/05/12 08:03:40;;;;;;;137.85;60.85;;;;;;;19.80;41.75;101803.75;5014095;28;20064;-75
2023/05/12 08:06:06;;;;;;;136.52;60.50;;;;;;;19.78;42.15;101805.53;5012483;28;20022;-75
2023/05/12 08:08:32;;;;;;;137.27;59.80;;;;;;;19.76;42.01;101800.28;5012905;28;20097;-74
2023/05/12 08:10:58;;;;;;;136.50;60.15;;;;;;;19.76;41.63;101800.28;5012620;28;20049;-76
2023/05/12 08:13:25;;;;;;;136.95;59.75;;;;;;;19.79;41.77;101801.97;5013212;28;20105;-75
2023/05/12 08:15:50;;;;;;;129.65;60.13;;;;;;;19.83;41.81;101802.75;4998253;28;20022;-75
2023/05/12 08:18:15;;;;;;;130.85;59.30;;;;;;;19.85;41.81;101804.44;4998818;28;20048;-75
2023/05/12 08:20:41;;;;;;;138.07;60.92;;;;;;;19.88;41.49;101806.97;5030500;28;20453;-75
2023/05/12 08:23:06;;;;;;;135.90;61.67;;;;;;;19.90;41.68;101805.09;5013168;28;20506;-75
2023/05/12 08:25:33;;;;;;;137.90;60.97;;;;;;;19.94;41.67;101805.88;5012522;28;20022;-75
2023/05/12 08:27:59;;;;;;;138.82;60.17;;;;;;;19.99;41.65;101814.50;5012505;28;20026;-75
2023/05/12 08:30:25;;;;;;;140.02;62.25;;;;;;;20.05;41.25;101805.47;5012302;28;20105;-75
2023/05/12 08:32:50;;;;;;;136.68;60.40;;;;;;;20.13;40.89;101807.81;5013453;28;20018;-75
2023/05/12 08:35:16;;;;;;;137.27;61.97;;;;;;;20.20;40.77;101811.97;5012196;28;20091;-74
2023/05/12 08:37:41;;;;;;;144.32;62.75;;;;;;;20.26;40.94;101806.44;5012414;28;20081;-74
2023/05/12 08:40:15;;;;;;;136.88;61.92;;;;;;;20.30;40.85;101805.38;5012112;28;20029;-74
2023/05/12 08:42:54;;;;;;;136.47;61.03;;;;;;;20.35;40.70;101810.50;5012343;28;20501;-75
2023/05/12 08:45:21;;;;;;;138.13;61.92;;;;;;;20.40;40.58;101804.06;5012282;28;20029;-75
2023/05/12 08:47:48;;;;;;;139.75;62.05;;;;;;;20.42;40.49;101811.97;4995930;28;20061;-75
2023/05/12 08:50:16;;;;;;;137.43;61.53;;;;;;;20.47;40.96;101810.00;5012164;28;20053;-76
2023/05/12 08:52:42;;;;;;;138.35;60.58;;;;;;;20.53;40.53;101809.75;5011882;28;20030;-75
2023/05/12 08:55:08;;;;;;;139.00;62.45;;;;;;;20.62;40.07;101812.97;5011723;28;20399;-75
2023/05/12 08:57:34;;;;;;;132.15;62.30;;;;;;;20.68;39.83;101808.31;5011979;28;20033;-74
2023/05/12 09:00:01;;;;;;;142.25;63.13;;;;;;;20.76;39.63;101805.31;5028313;28;20037;-75
2023/05/12 09:02:27;;;;;;;134.20;62.65;;;;;;;20.80;39.62;101808.72;5012373;28;20368;-74
2023/05/12 09:04:56;;;;;;;137.80;63.45;;;;;;;20.85;39.79;101809.41;5011800;28;20098;-75
2023/05/12 09:07:25;;;;;;;136.70;62.65;;;;;;;20.89;39.63;101806.53;5013272;28;20030;-76
2023/05/12 09:09:56;;;;;;;129.80;60.35;;;;;;;20.92;39.59;101810.84;5013283;28;20018;-73
2023/05/12 09:12:24;;;;;;;137.00;62.55;;;;;;;20.96;39.63;101814.25;5013252;28;20032;-74
2023/05/12 09:15:03;;;;;;;140.82;63.67;;;;;;;20.97;39.47;101808.88;5012870;28;20041;-74
2023/05/12 09:17:29;;;;;;;141.40;63.83;;;;;;;20.99;39.52;101816.78;5012873;28;20083;-74
2023/05/12 09:19:54;;;;;;;143.85;64.25;;;;;;;20.98;39.31;101804.41;5012852;28;20442;-74
2023/05/12 09:22:32;;;;;;;138.73;63.63;;;;;;;20.99;39.54;101799.03;5012340;28;20399;-75
2023/05/12 09:24:57;;;;;;;137.93;63.35;;;;;;;20.98;39.37;101805.28;5012776;28;20028;-76
2023/05/12 09:27:27;;;;;;;136.98;61.80;;;;;;;20.97;39.41;101806.22;5011689;28;20402;-74
2023/05/12 09:29:53;;;;;;;137.40;63.20;;;;;;;20.96;39.48;101798.31;4995480;28;20030;-75
2023/05/12 09:32:32;;;;;;;135.82;63.13;;;;;;;20.94;39.41;101798.38;5011431;28;20017;-74
2023/05/12 09:35:04;;;;;;;136.07;61.92;;;;;;;20.92;39.51;101800.25;5010825;28;20022;-74
2023/05/12 09:37:35;;;;;;;137.48;62.17;;;;;;;20.90;39.45;101802.97;5013107;28;20022;-74
2023/05/12 09:40:01;;;;;;;134.35;61.55;;;;;;;20.89;39.60;101805.69;5011951;28;20090;-75
2023/05/12 09:42:29;;;;;;;139.63;63.88;;;;;;;20.88;39.63;101804.81;5011323;28;20029;-75
2023/05/12 09:45:02;;;;;;;134.05;61.53;;;;;;;20.85;39.80;101799.63;4991431;28;20026;-74
2023/05/12 09:47:34;;;;;;;139.18;62.55;;;;;;;20.83;39.84;101800.63;4997050;28;20104;-73
2023/05/12 09:50:01;;;;;;;139.10;62.67;;;;;;;20.80;39.65;101796.28;5021505;28;20030;-75
2023/05/12 09:52:27;;;;;;;136.00;63.45;;;;;;;20.76;39.71;101800.88;5018242;28;20026;-75
2023/05/12 09:54:52;;;;;;;146.27;62.92;;;;;;;20.73;40.25;101801.00;4992401;28;20037;-75
2023/05/12 09:57:21;;;;;;;140.98;63.92;;;;;;;20.72;40.00;101798.41;5024402;28;20026;-75
2023/05/12 09:59:47;;;;;;;140.38;63.65;;;;;;;20.69;40.44;101798.53;5008073;28;20510;-75
2023/05/12 10:02:15;;;;;;;140.77;62.83;;;;;;;20.66;40.02;101799.50;4992178;28;20093;-74
2023/05/12 10:04:48;;;;;;;140.77;62.40;;;;;;;20.63;40.48;101798.75;4991866;28;20026;-74
2023/05/12 10:07:16;;;;;;;138.07;62.13;;;;;;;20.58;40.64;101796.28;4992659;28;20030;-75
2023/05/12 10:09:45;;;;;;;139.25;63.00;;;;;;;20.53;40.60;101788.53;5013083;28;20482;-75
2023/05/12 10:12:11;;;;;;;142.48;63.65;;;;;;;20.47;40.85;101798.53;4997560;28;20026;-77
2023/05/12 10:14:37;;;;;;;141.25;62.42;;;;;;;20.51;40.90;101790.38;4994332;28;20037;-77
2023/05/12 10:17:04;;;;;;;143.85;64.18;;;;;;;20.52;41.28;101796.53;5005567;28;20040;-75
2023/05/12 10:19:29;;;;;;;139.60;63.17;;;;;;;20.42;41.56;101801.34;5014696;28;20053;-75
2023/05/12 10:21:56;;;;;;;144.35;63.13;;;;;;;20.39;42.27;101796.19;5018086;28;20022;-77
2023/05/12 10:24:30;;;;;;;158.15;66.53;;;;;;;20.38;42.54;101805.94;5016392;28;20499;-76
2023/05/12 10:26:56;;;;;;;144.43;62.50;;;;;;;20.35;42.87;101800.72;5011675;28;20113;-76
2023/05/12 10:29:29;;;;;;;139.07;61.97;;;;;;;20.28;43.01;101799.25;5007263;28;20025;-76
2023/05/12 10:31:59;;;;;;;137.35;62.03;;;;;;;20.26;43.43;101791.38;5018195;28;20053;-75
2023/05/12 10:34:29;;;;;;;146.32;63.65;;;;;;;20.26;43.54;101795.81;5010374;28;20552;-75
2023/05/12 10:36:57;;;;;;;156.88;65.07;;;;;;;20.25;43.51;101792.28;5018258;28;20029;-75
2023/05/12 10:39:28;;;;;;;140.88;62.92;;;;;;;20.29;43.51;101798.34;5019927;28;20471;-75
2023/05/12 10:42:06;;;;;;;141.20;61.92;;;;;;;20.39;43.61;101791.72;5023697;28;20045;-73
2023/05/12 10:44:31;;;;;;;147.25;64.43;;;;;;;20.46;44.00;101788.84;5036084;28;20498;-73
2023/05/12 10:46:58;;;;;;;142.57;63.53;;;;;;;20.55;44.05;101788.47;5016838;28;20037;-76
2023/05/12 10:49:36;;;;;;;149.00;64.40;;;;;;;20.56;43.84;101782.22;5016018;28;20030;-76
2023/05/12 10:52:02;;;;;;;152.95;65.90;;;;;;;20.57;44.24;101783.94;5016189;28;20036;-78
2023/05/12 10:54:27;;;;;;;145.93;64.90;;;;;;;20.56;44.33;101787.50;5015624;28;20026;-78
2023/05/12 10:56:57;;;;;;;154.70;65.63;;;;;;;20.54;44.63;101786.72;5015409;28;20433;-72
2023/05/12 10:59:23;;;;;;;143.02;63.03;;;;;;;20.51;44.44;101784.22;4990322;28;20117;-75